Dades meteomassalio
Diari Summary for Abril 7, 2017 Units:  Metric    English   Both
« Previous Day
Next Day »
Diari Semanal Mensual Anual Personalitzat
  Maxima: Minima: Mijana:
Temperatura: 13.1 °C 4.0 °C 8 °C
Rosada: 4.6 °C 1.7 °C 3.4 °C
Humitat: 85 % 56 % 73 %
Velocitat del vent: 9.3 km/h 0.0 km/h 0.9 km/h
Racha vent: 9.3 km/h - -
Vent:- - WSW
Pressio: 1021.6 hPa 1019.9 hPa -
Pluja: 0.0 mm    
Historical Graphs
 
 
Tabular Data for Abril 7, 2017
Time Temperature Dew Point Pressure Wind Wind Speed Wind Gust Humidity Rainfall Rate (Hourly) solar Conditions
00:04 13.1 °C 4.5 °C 1019.9 hPa WSW 1.9 km/h 1.9 km/h 56 % 0.0 mm 0.0 W/m2 CLR
00:09 12.8 °C 4.3 °C 1019.9 hPa Calm     56 % 0.0 mm 0.0 W/m2 CLR
00:14 12.4 °C 4.1 °C 1020.2 hPa Calm     57 % 0.0 mm 0.0 W/m2 CLR
00:19 12.2 °C 4.2 °C 1020.2 hPa Calm     58 % 0.0 mm 0.0 W/m2 CLR
00:24 12.2 °C 4.2 °C 1020.2 hPa Calm     58 % 0.0 mm 0.0 W/m2 CLR
00:29 12.2 °C 4.2 °C 1020.2 hPa Calm     58 % 0.0 mm 0.0 W/m2 CLR
00:34 12.2 °C 4.2 °C 1020.2 hPa WSW 3.7 km/h 3.7 km/h 58 % 0.0 mm 0.0 W/m2 CLR
00:39 12.3 °C 4.2 °C 1020.2 hPa WSW 4.8 km/h 4.8 km/h 58 % 0.0 mm 0.0 W/m2 CLR
00:44 12.2 °C 4.4 °C 1020.2 hPa West 5.6 km/h 5.6 km/h 59 % 0.0 mm 0.0 W/m2 CLR
00:49 12.2 °C 4.4 °C 1020.2 hPa West 5.6 km/h 5.6 km/h 59 % 0.0 mm 0.0 W/m2 CLR
00:54 12.2 °C 4.6 °C 1020.2 hPa West 5.6 km/h 5.6 km/h 60 % 0.0 mm 0.0 W/m2 CLR
00:59 12.2 °C 4.6 °C 1020.2 hPa WSW 9.3 km/h 9.3 km/h 60 % 0.0 mm 0.0 W/m2 CLR
01:04 12.2 °C 4.6 °C 1020.2 hPa Calm     60 % 0.0 mm 0.0 W/m2 CLR
01:09 12.0 °C 4.4 °C 1020.2 hPa Calm     60 % 0.0 mm 0.0 W/m2 CLR
01:14 11.7 °C 4.2 °C 1020.2 hPa Calm     60 % 0.0 mm 0.0 W/m2 CLR
01:19 11.4 °C 4.1 °C 1020.2 hPa WSW 1.9 km/h 1.9 km/h 61 % 0.0 mm 0.0 W/m2 CLR
01:24 11.1 °C 4.3 °C 1020.5 hPa WSW 5.6 km/h 5.6 km/h 63 % 0.0 mm 0.0 W/m2 CLR
01:29 10.8 °C 4.3 °C 1020.5 hPa Calm     64 % 0.0 mm 0.0 W/m2 CLR
01:34 10.6 °C 4.2 °C 1020.5 hPa Calm     65 % 0.0 mm 0.0 W/m2 CLR
01:35 10.6 °C 4.2 °C 1020.5 hPa Calm     65 % 0.0 mm 0.0 W/m2 CLR
01:40 10.4 °C 4.3 °C 1020.5 hPa Calm     66 % 0.0 mm 0.0 W/m2 CLR
01:45 10.3 °C 4.2 °C 1020.5 hPa Calm     66 % 0.0 mm 0.0 W/m2 CLR
01:50 10.2 °C 4.3 °C 1020.5 hPa Calm     67 % 0.0 mm 0.0 W/m2 CLR
01:55 10.2 °C 4.3 °C 1020.5 hPa SW 1.9 km/h 1.9 km/h 67 % 0.0 mm 0.0 W/m2 CLR
02:00 10.2 °C 4.4 °C 1020.9 hPa SW 5.6 km/h 5.6 km/h 67 % 0.0 mm 0.0 W/m2 CLR
02:05 10.1 °C 4.2 °C 1020.9 hPa Calm     67 % 0.0 mm 0.0 W/m2 CLR
02:10 9.8 °C 4.2 °C 1020.5 hPa Calm     68 % 0.0 mm 0.0 W/m2 CLR
02:15 9.4 °C 4.1 °C 1020.9 hPa Calm     69 % 0.0 mm 0.0 W/m2 CLR
02:20 9.2 °C 4.1 °C 1020.9 hPa Calm     70 % 0.0 mm 0.0 W/m2 CLR
02:25 9.1 °C 4.1 °C 1020.9 hPa West 3.2 km/h 3.2 km/h 71 % 0.0 mm 0.0 W/m2 CLR
02:30 9.4 °C 4.4 °C 1020.9 hPa West 5.6 km/h 5.6 km/h 71 % 0.0 mm 0.0 W/m2 CLR
02:35 10.0 °C 4.3 °C 1020.9 hPa Calm     68 % 0.0 mm 0.0 W/m2 CLR
02:40 9.9 °C 4.1 °C 1020.9 hPa Calm     67 % 0.0 mm 0.0 W/m2 CLR
02:45 9.6 °C 3.9 °C 1020.9 hPa Calm     68 % 0.0 mm 0.0 W/m2 CLR
02:50 9.1 °C 3.9 °C 1020.9 hPa Calm     70 % 0.0 mm 0.0 W/m2 CLR
02:55 8.8 °C 3.8 °C 1020.9 hPa Calm     71 % 0.0 mm 0.0 W/m2 CLR
03:00 8.5 °C 3.7 °C 1020.9 hPa Calm     72 % 0.0 mm 0.0 W/m2 CLR
03:05 8.3 °C 3.7 °C 1020.9 hPa Calm     73 % 0.0 mm 0.0 W/m2 CLR
03:10 7.9 °C 3.6 °C 1020.9 hPa Calm   0.3 km/h 74 % 0.0 mm 0.0 W/m2 CLR
03:15 7.7 °C 3.5 °C 1020.9 hPa Calm     75 % 0.0 mm 0.0 W/m2 CLR
03:20 7.5 °C 3.6 °C 1020.9 hPa Calm     76 % 0.0 mm 0.0 W/m2 CLR
03:25 7.3 °C 3.4 °C 1020.9 hPa Calm     76 % 0.0 mm 0.0 W/m2 CLR
03:30 7.3 °C 3.5 °C 1020.9 hPa Calm     77 % 0.0 mm 0.0 W/m2 CLR
03:35 7.2 °C 3.4 °C 1020.9 hPa Calm     77 % 0.0 mm 0.0 W/m2 CLR
03:40 7.6 °C 3.9 °C 1020.5 hPa West 9.3 km/h 9.3 km/h 78 % 0.0 mm 0.0 W/m2 CLR
03:45 8.5 °C 4.1 °C 1020.9 hPa WSW 5.6 km/h 5.6 km/h 74 % 0.0 mm 0.0 W/m2 CLR
03:50 8.5 °C 3.7 °C 1020.9 hPa Calm     72 % 0.0 mm 0.0 W/m2 CLR
03:55 7.9 °C 3.3 °C 1020.9 hPa Calm     73 % 0.0 mm 0.0 W/m2 CLR
04:00 7.3 °C 2.9 °C 1020.9 hPa SW 5.6 km/h 5.6 km/h 74 % 0.0 mm 0.0 W/m2 CLR
04:05 6.8 °C 2.9 °C 1020.9 hPa Calm     76 % 0.0 mm 0.0 W/m2 CLR
04:10 6.6 °C 3.1 °C 1020.9 hPa Calm     78 % 0.0 mm 0.0 W/m2 CLR
04:15 6.6 °C 3.2 °C 1020.9 hPa Calm     79 % 0.0 mm 0.0 W/m2 CLR
04:20 6.6 °C 3.1 °C 1020.9 hPa Calm     78 % 0.0 mm 0.0 W/m2 CLR
04:25 6.6 °C 3.1 °C 1020.9 hPa Calm     78 % 0.0 mm 0.0 W/m2 CLR
04:31 6.6 °C 3.2 °C 1020.9 hPa Calm     79 % 0.0 mm 0.0 W/m2 CLR
04:36 6.5 °C 3.1 °C 1020.9 hPa Calm     79 % 0.0 mm 0.0 W/m2 CLR
04:41 6.4 °C 3.0 °C 1020.9 hPa Calm     79 % 0.0 mm 0.0 W/m2 CLR
04:46 6.2 °C 2.8 °C 1020.9 hPa Calm     79 % 0.0 mm 0.0 W/m2 CLR
04:51 6.1 °C 2.9 °C 1020.9 hPa Calm     80 % 0.0 mm 0.0 W/m2 CLR
04:56 6.0 °C 2.8 °C 1020.9 hPa Calm     80 % 0.0 mm 0.0 W/m2 CLR
05:01 5.9 °C 2.8 °C 1020.9 hPa Calm     80 % 0.0 mm 0.0 W/m2 CLR
05:06 5.9 °C 2.7 °C 1020.9 hPa Calm     80 % 0.0 mm 0.0 W/m2 CLR
05:11 5.8 °C 2.8 °C 1020.9 hPa Calm     81 % 0.0 mm 0.0 W/m2 CLR
05:16 5.7 °C 2.7 °C 1020.9 hPa Calm     81 % 0.0 mm 0.0 W/m2 CLR
05:21 5.6 °C 2.6 °C 1021.2 hPa Calm     81 % 0.0 mm 0.0 W/m2 CLR
05:26 5.4 °C 2.4 °C 1021.2 hPa Calm     81 % 0.0 mm 0.0 W/m2 CLR
05:31 5.3 °C 2.5 °C 1021.2 hPa Calm     82 % 0.0 mm 0.0 W/m2 CLR
05:36 5.3 °C 2.4 °C 1021.2 hPa Calm     82 % 0.0 mm 0.0 W/m2 CLR
05:41 5.2 °C 2.4 °C 1021.2 hPa Calm     82 % 0.0 mm 0.0 W/m2 CLR
05:46 5.2 °C 2.5 °C 1021.2 hPa Calm     83 % 0.0 mm 0.0 W/m2 CLR
05:51 5.1 °C 2.4 °C 1021.2 hPa Calm     83 % 0.0 mm 0.0 W/m2 CLR
05:56 5.1 °C 2.4 °C 1021.2 hPa Calm     83 % 0.0 mm 0.0 W/m2 CLR
06:01 5.1 °C 2.4 °C 1021.2 hPa Calm     83 % 0.0 mm 0.0 W/m2 CLR
06:06 4.9 °C 2.3 °C 1021.2 hPa Calm     83 % 0.0 mm 0.0 W/m2 CLR
06:11 4.9 °C 2.3 °C 1021.2 hPa Calm     83 % 0.0 mm 0.0 W/m2 CLR
06:16 4.8 °C 2.2 °C 1021.2 hPa Calm     83 % 0.0 mm 0.0 W/m2 CLR
06:21 4.8 °C 2.3 °C 1021.2 hPa Calm     84 % 0.0 mm 0.0 W/m2 CLR
06:26 4.9 °C 2.4 °C 1021.2 hPa Calm     84 % 0.0 mm 0.0 W/m2 CLR
06:31 4.9 °C 2.4 °C 1021.2 hPa Calm     84 % 0.0 mm 0.0 W/m2 CLR
06:36 4.9 °C 2.4 °C 1021.2 hPa Calm     84 % 0.0 mm 0.0 W/m2 CLR
06:41 4.9 °C 2.2 °C 1021.2 hPa Calm     83 % 0.0 mm 0.0 W/m2 CLR
06:46 4.7 °C 2.2 °C 1021.2 hPa Calm     84 % 0.0 mm 0.0 W/m2 CLR
06:51 4.6 °C 2.1 °C 1021.2 hPa Calm     84 % 0.0 mm 0.0 W/m2 CLR
06:56 4.5 °C 2.1 °C 1021.2 hPa Calm     84 % 0.0 mm 0.0 W/m2 CLR
07:01 4.4 °C 1.9 °C 1021.2 hPa Calm     84 % 0.0 mm 0.0 W/m2 CLR
07:06 4.2 °C 1.8 °C 1021.6 hPa Calm     84 % 0.0 mm 0.0 W/m2 CLR
07:11 4.2 °C 1.9 °C 1021.6 hPa Calm     85 % 0.0 mm 0.0 W/m2 CLR
07:16 4.1 °C 1.8 °C 1021.6 hPa Calm     85 % 0.0 mm 0.0 W/m2 CLR
07:21 4.0 °C 1.7 °C 1021.6 hPa Calm     85 % 0.0 mm 0.0 W/m2 CLR
Lo Temps de Massalio
Compliments of Weather Underground - 512 kb